Date,TemperatureHighF,TemperatureAvgF,TemperatureLowF,DewpointHighF,DewpointAvgF,DewpointLowF,HumidityHigh,HumidityAvg,HumidityLow,PressureMaxIn,PressureMinIn,WindSpeedMaxMPH,WindSpeedAvgMPH,GustSpeedMaxMPH,PrecipitationSumIn
2013-1-1,35,27,19,25,15,6,69,61,55,29.86,29.66,9,5,0,0.00
2013-1-2,31,21,11,17,9,0,70,61,51,30.02,29.81,9,4,0,0.00
2013-1-3,27,15,6,11,1,-5,70,53,32,30.07,29.91,8,3,0,0.00
2013-1-4,40,30,19,24,19,12,81,66,50,29.91,29.72,18,6,0,0.00
2013-1-5,44,34,24,26,21,18,78,60,39,30.19,29.77,14,4,0,0.00
2013-1-6,44,35,25,29,25,20,83,69,52,30.15,29.84,11,3,0,0.00
2013-1-7,41,35,27,28,26,22,90,72,49,30.34,30.04,8,3,0,0.00
2013-1-8,48,38,31,30,28,26,88,67,48,30.31,30.17,17,6,0,0.00
2013-1-9,44,37,26,35,29,24,91,73,56,30.34,29.89,14,3,0,0.00
2013-1-10,49,43,34,28,25,24,64,51,41,30.45,29.94,10,5,0,0.00
2013-1-11,43,39,30,37,32,24,92,75,63,30.44,30.14,9,3,0,0.06
2013-1-12,47,42,39,42,40,37,96,90,80,30.18,30.04,9,2,0,0.01
2013-1-13,51,46,42,48,44,42,97,94,88,30.08,29.91,9,2,0,0.00
2013-1-14,63,54,42,51,39,28,87,57,45,30.17,29.86,11,4,0,0.00
2013-1-15,42,38,34,28,26,23,65,62,55,30.22,30.15,5,2,0,0.00
2013-1-16,35,33,31,32,28,23,95,82,62,30.18,29.73,4,1,0,0.24
2013-1-17,42,35,30,30,24,13,88,63,49,30.01,29.83,7,4,0,0.37
2013-1-18,30,24,18,13,5,-2,50,45,33,30.38,29.99,8,4,0,0.00
2013-1-19,50,36,25,27,20,8,62,52,36,30.31,29.89,14,8,0,0.00
2013-1-20,55,52,47,31,30,29,53,43,38,29.52,29.41,26,13,0,0.00
2013-1-21,30,26,23,20,14,6,85,64,37,29.91,29.78,8,3,0,0.00
2013-1-22,17,14,13,3,2,1,63,57,49,30.00,29.94,5,4,0,0.00
2013-1-23,14,10,7,0,-8,-11,58,44,32,30.07,29.98,8,4,0,0.00
2013-1-24,20,11,3,-6,-9,-12,57,41,26,30.09,29.97,12,5,0,0.00
2013-1-25,26,21,16,12,-3,-7,76,35,25,30.22,29.99,9,4,0,0.00
2013-1-26,26,18,12,12,4,-8,82,56,29,30.15,29.92,9,4,0,0.00
2013-1-27,32,21,14,4,2,-2,64,45,26,30.40,30.14,9,4,0,0.00
2013-1-28,32,26,17,28,13,1,93,62,35,30.38,29.93,6,2,0,0.00
2013-1-29,38,31,26,31,27,24,93,85,72,30.12,29.93,5,1,0,0.08
2013-1-30,59,57,55,55,54,53,93,89,83,29.50,29.39,11,8,0,0.25
2013-1-31,60,42,33,56,27,17,93,57,41,29.47,28.94,20,8,0,0.10
2013-2-1,34,31,26,14,9,7,50,39,33,29.89,29.66,12,6,0,0.00
2013-2-2,32,29,26,13,10,4,56,46,37,30.16,29.96,10,7,0,0.00
2013-2-3,28,27,25,21,20,19,81,76,69,29.85,29.66,6,3,0,0.00
2013-2-4,26,24,22,14,7,6,71,49,42,29.82,29.68,10,6,0,0.00
2013-2-5,29,27,22,19,15,10,68,60,49,29.95,29.86,5,3,0,0.00
2013-2-6,40,34,26,26,22,14,90,61,48,30.07,29.89,10,4,0,0.06
2013-2-7,27,26,26,12,6,1,53,42,32,30.44,30.41,4,2,0,0.00
2013-2-8,33,30,20,31,27,18,98,89,73,30.27,29.48,17,9,0,0.20
2013-2-9,23,19,14,22,15,8,94,87,75,30.09,29.45,16,5,0,0.00
2013-2-10,39,22,10,34,13,4,95,70,36,30.32,30.10,8,2,0,0.13
2013-2-11,42,33,20,42,31,17,99,91,73,30.26,29.50,10,2,0,0.31
2013-2-12,45,39,34,36,30,27,99,70,53,29.78,29.51,12,5,0,0.00
2013-2-13,46,36,29,32,28,24,92,72,47,29.79,29.60,7,3,0,0.00
2013-2-14,45,37,31,30,26,22,86,67,41,29.91,29.63,7,3,0,0.00
2013-2-15,48,38,32,37,34,26,98,86,58,29.92,29.81,8,3,0,0.00
2013-2-16,40,35,31,35,30,21,99,83,59,29.86,29.63,7,2,0,0.01
2013-2-17,32,23,17,23,14,4,97,71,49,29.61,29.26,14,7,0,0.00
2013-2-18,33,24,15,7,4,2,59,43,28,30.06,29.57,14,7,0,0.00
2013-2-19,41,37,23,41,33,7,99,87,48,30.07,29.47,6,2,0,0.39
2013-2-20,42,32,27,41,22,13,99,68,42,29.68,29.43,12,6,0,0.00
2013-2-21,34,30,26,16,14,12,67,52,44,30.02,29.67,11,6,0,0.00
2013-2-22,40,35,23,27,24,17,84,65,52,30.31,30.14,11,4,0,0.00
2013-2-23,37,36,35,36,34,31,99,94,80,30.16,29.85,10,5,0,0.17
2013-2-24,38,35,31,38,35,31,99,99,99,29.84,29.59,14,5,0,0.41
2013-2-25,40,37,30,33,32,30,99,82,70,30.13,29.94,4,2,0,0.17
2013-2-27,40,40,39,40,39,38,99,98,94,30.00,29.85,9,7,0,0.29
2013-3-6,37,36,36,34,34,33,94,89,84,30.00,29.98,18,9,0,0.09
2013-3-7,34,32,31,34,32,31,99,99,99,29.94,29.92,12,6,0,0.24
2013-3-8,40,36,30,33,29,24,99,79,56,30.05,29.86,21,5,0,0.49
2013-3-9,44,37,30,34,31,24,99,80,58,30.27,30.05,9,3,0,0.09
2013-3-10,43,34,28,35,32,28,99,92,72,30.34,30.24,7,3,0,0.00
2013-3-11,49,43,36,42,38,34,99,85,69,30.25,30.08,8,4,0,0.00
2013-3-12,51,47,41,51,46,40,99,99,99,30.00,29.64,9,5,0,0.21
2013-3-13,40,39,37,22,22,22,54,51,49,29.69,29.68,2,2,0,0.00
2013-3-14,39,32,23,19,14,9,57,46,39,29.74,29.62,12,6,0,0.00
2013-3-15,43,29,20,17,10,6,59,45,25,29.79,29.55,12,5,0,0.00
2013-3-30,59,55,53,33,29,26,37,36,34,29.83,29.82,7,5,0,0.00